Pagrindinis puslapis
METAR-TAF:

METAR-TAF

Oro uostai :

Posadasas, Argentina

platuma: 27-22S, ilguma: 055-58W, Aukštis: 131 m

Dabartinis oras

Ataskaita buvo paskelbta 1 valandą ir 11 minutes, ne 21:00 UTC
Vėjas 3 kt iš Šiaurės Rytų
Temperatūra 28°C
Drėgmė 70%
Slėgis 1009 hPa
Matomumas 10 km arba daugiau
Mažai debesys ne aukštis 3500 ft
Išsisklaidę debesys ne aukštis 10000 ft
Su prošvaistėmis ne aukštis 20000 ft

METAR: SARP 122100Z 05003KT 9999 FEW035 SCT100 BKN200 28/22 Q1009

Laikas: 19:11 (22:11 UTC)

Prognozė

Ataskaita buvo paskelbta 5 valandos ir 11 minutes, ne 17:00 UTC
Prognozė galioja nuo 12 metu 18 UTC su 13 metu 18 UTC
Vėjas 5 kt iš Pietų/Pietvakarių
Matomumas 10 km arba daugiau
Mažai debesys ne aukštis 1500 ft
Išsisklaidę debesys ne aukštis 2000 ft
Su prošvaistėmis ne aukštis 10000 ft
Tapsmas
nuo 12 metu 20 UTC su 12 metu 21 UTC
Matomumas 10 km arba daugiau
nėra debesų žemiau 1500 m ir nėra kamuolinių lietaus debesų

TAF: SARP 121700Z 1218/1318 20005KT 9999 FEW015 SCT020 BKN100 TX35/1318Z TN22/1309Z BECMG 1220/1221 CAVOK

Orai ataskaitas ir orų prognozės (METAR, TAF).

turimą stotys yra geltonos ir raudonos taškus žemėlapyje.

Perkelti pele per norėdami pamatyti stoties vardą.

Tada spustelėkite, norėdami matyti oro stebėjimo ir prognozės.

Norėdami pakeisti žemėlapį: spustelėkite ant žalios mygtukų su juodo kryžiaus žemyn,; žalią mygtuką su brūkšneliu, jei norite nutolinti; arba žalių rodyklių gretimoms žemėlapius.


METAR-TAF: